ミンスク/第2 の空港の天気 - METARとTAF

ミンスク第2空港 ( UMMS / MSQ ) - ベラルーシ ミンスク
飛行場実況気象(Metar)
観測時間09/22 21:00 MSK (09/22 18:00 UTC)
風向・風速南西 2m/s
視程10km以上
天気現象
なし
気温16℃
湿度68%
気圧1016hPa
METARUMMS 221800Z 22002MPS 190V250 CAVOK 16/10 Q1016 R31R/CLRD// R31L/////// NOSIG
過去の天気等 Google飛行場航空写真 Wunderground天気予報

過去48時間のMETAR

飛行場予報(TAF)
発表時間: 9/22 20:04 MSK (9/22 17:04 UTC)
予報対象時間: 22日21時 MSK ~ 23日21時 MSK
風向・風速南 5m/s
視程8000m
少しの雲 雲底高度 910m
22日21時 MSK ~ 23日9時 MSK に一時的に
視程300m
天気現象
全天の8割程度の雲 雲底高度 60m
23日9時 MSK ~ 23日10時 MSK に徐々に
風向・風速南 5m/s 瞬間風速 10m/s
視程10km以上
なし
TAF UMMS 221704Z 2218/2318 18005MPS 8000 FEW030
TEMPO 2218/2306 0300 FG BKN002
BECMG 2306/2307 18005G10MPS CAVOK